Time;durP1;ratioP1;P1;durP2;ratioP2;P2;SDS_P1;SDS_P2;PMS_P1;PMS_P2;Temp;Humidity;BMP_temperature;BMP_pressure;BME280_temperature;BME280_humidity;BME280_pressure;Samples;Min_cycle;Max_cycle;Signal;HPM_P1;HPM_P2
2022/10/02 00:08:17;;;;;;;;;;;;;;;23.00;59.57;100044.88;20651226;28;22085;-80
2022/10/02 00:18:29;;;;;;;3.17;2.40;;;;;;;22.94;59.69;100063.91;20653022;28;20377;-80
2022/10/02 00:28:55;;;;;;;2.20;2.00;;;;;;;22.93;59.62;100079.91;20644608;28;20056;-80
2022/10/02 00:39:18;;;;;;;2.75;2.20;;;;;;;22.92;59.81;100089.59;20654361;28;20041;-81
2022/10/02 00:49:38;;;;;;;2.15;1.95;;;;;;;22.89;59.64;100100.47;20633495;28;21058;-80
2022/10/02 00:59:58;;;;;;;3.80;1.90;;;;;;;22.89;59.67;100126.00;20639683;28;20049;-80
2022/10/02 01:09:58;;;;;;;3.50;2.20;;;;;;;22.85;59.58;100113.09;20647756;28;20119;-81
2022/10/02 01:20:03;;;;;;;2.50;1.95;;;;;;;22.84;59.65;100105.31;20625877;28;20074;-81
2022/10/02 01:30:11;;;;;;;2.05;1.85;;;;;;;22.83;59.38;100115.03;20651982;28;20482;-81
2022/10/02 01:40:30;;;;;;;2.50;1.80;;;;;;;22.81;59.03;100130.19;20656508;28;20050;-81
2022/10/02 01:50:52;;;;;;;6.60;1.90;;;;;;;22.79;59.53;100155.88;20658998;28;20058;-80
2022/10/02 02:01:20;;;;;;;1.80;1.70;;;;;;;22.77;59.23;100167.53;20632409;28;20124;-81
2022/10/02 02:11:21;;;;;;;1.92;1.63;;;;;;;22.77;59.17;100186.84;20641860;28;20046;-81
2022/10/02 02:21:40;;;;;;;1.80;1.70;;;;;;;22.75;59.27;100187.94;20643896;28;20069;-82
2022/10/02 02:31:49;;;;;;;1.45;1.35;;;;;;;22.71;59.15;100187.38;20639087;28;20107;-81
2022/10/02 02:41:57;;;;;;;2.55;1.65;;;;;;;22.70;59.15;100196.25;20643821;28;20128;-83
2022/10/02 02:52:02;;;;;;;1.42;1.33;;;;;;;22.68;58.99;100219.34;20651585;28;20073;-81
2022/10/02 03:02:06;;;;;;;2.83;1.40;;;;;;;22.67;59.11;100226.41;20642153;28;20648;-80
2022/10/02 03:12:36;;;;;;;2.65;1.30;;;;;;;22.67;59.05;100239.59;20641894;28;20048;-81
2022/10/02 03:22:40;;;;;;;1.75;1.30;;;;;;;22.67;58.99;100246.69;20643899;28;20046;-80
2022/10/02 03:32:45;;;;;;;1.50;1.40;;;;;;;22.65;59.23;100251.25;20635544;28;20434;-80
2022/10/02 03:42:45;;;;;;;1.85;1.40;;;;;;;22.64;59.14;100271.56;20646795;28;20124;-81
2022/10/02 03:52:47;;;;;;;1.63;1.45;;;;;;;22.63;59.22;100274.28;20641959;28;20042;-81
2022/10/02 04:02:57;;;;;;;;;;;;;;;22.65;58.92;100267.91;20641401;28;20042;-79
2022/10/02 04:13:08;;;;;;;1.40;1.30;;;;;;;22.60;59.12;100279.84;20632678;28;19929;-80
2022/10/02 04:23:30;;;;;;;1.70;1.45;;;;;;;22.60;58.92;100299.16;20625884;28;20129;-81
2022/10/02 04:33:31;;;;;;;;;;;;;;;22.61;58.62;100310.56;20630000;28;21018;-81
2022/10/02 04:43:41;;;;;;;1.63;1.20;;;;;;;22.55;58.98;100317.19;20643213;28;19929;-80
2022/10/02 04:54:19;;;;;;;1.30;1.20;;;;;;;22.51;58.71;100324.53;20644896;28;20073;-80
2022/10/02 05:04:43;;;;;;;1.10;1.00;;;;;;;22.51;58.67;100329.81;20633985;28;20045;-79
2022/10/02 05:15:22;;;;;;;1.13;1.02;;;;;;;22.53;58.58;100345.50;20629706;28;20068;-79
2022/10/02 05:25:42;;;;;;;1.10;1.00;;;;;;;22.58;59.05;100363.59;20641096;28;20050;-76
2022/10/02 05:35:50;;;;;;;5.68;1.38;;;;;;;22.66;59.61;100369.06;20625000;28;20535;-75
2022/10/02 05:46:17;;;;;;;5.25;1.40;;;;;;;22.63;56.82;100370.16;20647564;28;20052;-76
2022/10/02 05:56:34;;;;;;;3.35;1.35;;;;;;;22.53;54.21;100382.44;20645664;28;20102;-76
2022/10/02 06:06:44;;;;;;;7.50;1.42;;;;;;;22.33;53.00;100399.91;20653002;28;20058;-76
2022/10/02 06:16:48;;;;;;;4.07;1.27;;;;;;;22.47;53.35;100404.91;20672024;28;20097;-77
2022/10/02 06:27:20;;;;;;;3.80;1.30;;;;;;;22.60;55.38;100404.72;20661804;28;20053;-77
2022/10/02 06:37:26;;;;;;;6.55;1.63;;;;;;;22.62;56.14;100394.03;20640827;28;20049;-84
2022/10/02 06:47:53;;;;;;;7.38;1.92;;;;;;;22.60;55.62;100420.56;20639625;28;20057;-87
2022/10/02 06:58:08;;;;;;;17.48;2.30;;;;;;;22.55;54.67;100446.50;20656663;28;20044;-76
2022/10/02 07:08:32;;;;;;;15.45;2.85;;;;;;;22.60;55.13;100457.50;20648967;28;20042;-83
2022/10/02 07:18:41;;;;;;;18.55;3.42;;;;;;;22.62;55.42;100468.78;20659474;28;20063;-82
2022/10/02 07:28:52;;;;;;;15.40;3.30;;;;;;;22.64;55.57;100477.41;20677556;28;20194;-82
2022/10/02 07:39:02;;;;;;;11.90;3.45;;;;;;;22.64;55.66;100482.69;20681743;28;20048;-82
2022/10/02 07:49:02;;;;;;;6.28;2.90;;;;;;;22.68;56.13;100488.56;20665371;28;20046;-76
2022/10/02 07:59:12;;;;;;;9.55;2.80;;;;;;;22.60;55.27;100494.44;20661506;28;20050;-77
2022/10/02 08:09:21;;;;;;;10.48;3.05;;;;;;;22.67;55.61;100502.72;20647114;28;20509;-77
2022/10/02 08:19:39;;;;;;;11.70;3.17;;;;;;;22.71;56.19;100501.50;20647230;28;20045;-78
2022/10/02 08:29:52;;;;;;;7.78;1.70;;;;;;;22.52;48.96;100503.00;20637700;28;20050;-78
2022/10/02 08:40:04;;;;;;;6.65;1.27;;;;;;;22.08;47.50;100525.81;20652639;28;20046;-78
2022/10/02 08:50:23;;;;;;;2.38;0.85;;;;;;;20.96;43.00;100528.16;20622849;28;20042;-77
2022/10/02 09:00:44;;;;;;;0.90;0.80;;;;;;;21.26;43.28;100540.84;20643267;28;20039;-77
2022/10/02 09:11:09;;;;;;;3.07;1.03;;;;;;;21.78;46.63;100535.19;20633086;28;20054;-77
2022/10/02 09:21:21;;;;;;;4.38;1.20;;;;;;;22.15;49.63;100520.91;20631870;28;20045;-77
2022/10/02 09:31:46;;;;;;;5.40;1.20;;;;;;;21.86;43.87;100514.34;20617567;28;20062;-75
2022/10/02 09:42:18;;;;;;;7.57;1.85;;;;;;;22.46;52.50;100492.94;20650341;28;20064;-76
2022/10/02 09:52:37;;;;;;;;;;;;;;;22.57;48.05;100509.69;20665530;28;20050;-82
2022/10/02 10:02:57;;;;;;;5.93;1.27;;;;;;;22.62;47.59;100518.91;20647210;28;21308;-80
2022/10/02 10:13:23;;;;;;;4.95;1.33;;;;;;;22.63;46.65;100499.50;20648364;28;20046;-82
2022/10/02 10:24:17;;;;;;;3.30;1.13;;;;;;;22.65;45.45;100500.19;20676336;28;20050;-82
2022/10/02 10:34:44;;;;;;;4.43;1.20;;;;;;;22.62;44.76;100502.22;20629983;28;20046;-76
2022/10/02 10:45:17;;;;;;;9.00;1.85;;;;;;;22.91;49.54;100494.56;20639268;28;20208;-76
2022/10/02 10:55:36;;;;;;;;;;;;;;;23.04;53.29;100494.38;20652026;28;20409;-75
2022/10/02 11:06:22;;;;;;;3.55;1.58;;;;;;;23.27;55.16;100486.34;20622809;28;19948;-76
2022/10/02 11:16:56;;;;;;;6.30;1.40;;;;;;;23.41;55.38;100499.22;20604048;28;20046;-74
2022/10/02 11:27:00;;;;;;;7.35;1.55;;;;;;;23.49;52.07;100509.13;20629825;28;20058;-76
2022/10/02 11:37:04;;;;;;;2.85;1.17;;;;;;;23.37;46.62;100491.69;20631023;28;20096;-77
2022/10/02 11:47:18;;;;;;;6.07;1.15;;;;;;;23.36;42.68;100474.97;20621872;28;20057;-77
2022/10/02 11:57:49;;;;;;;3.67;0.80;;;;;;;23.60;43.70;100452.72;20617627;28;24550;-75
2022/10/02 12:08:20;;;;;;;1.83;0.80;;;;;;;23.42;40.91;100455.97;20624833;28;20058;-76
2022/10/02 12:18:26;;;;;;;4.60;0.80;;;;;;;23.52;40.29;100455.19;20625308;28;20054;-76
2022/10/02 12:28:32;;;;;;;4.15;0.90;;;;;;;23.56;39.23;100456.56;20631057;28;20054;-74
2022/10/02 12:38:52;;;;;;;2.35;0.82;;;;;;;23.45;38.79;100436.38;20626262;28;20603;-75
2022/10/02 12:49:02;;;;;;;2.03;0.63;;;;;;;23.36;38.46;100430.06;20618702;28;20050;-75
2022/10/02 12:59:19;;;;;;;6.38;0.95;;;;;;;23.22;38.85;100425.97;20610383;28;20045;-76
2022/10/02 13:09:37;;;;;;;2.95;0.85;;;;;;;23.21;39.29;100416.38;20605863;28;20139;-75
2022/10/02 13:20:10;;;;;;;4.72;0.98;;;;;;;23.10;40.72;100387.38;20622567;28;20184;-77
2022/10/02 13:30:17;;;;;;;3.60;0.70;;;;;;;23.42;43.35;100389.06;20615977;28;20062;-76
2022/10/02 13:40:57;;;;;;;2.95;0.90;;;;;;;23.52;45.43;100387.28;20630872;28;20121;-77
2022/10/02 13:51:06;;;;;;;2.30;1.13;;;;;;;23.57;46.42;100374.53;20614678;28;20999;-77
2022/10/02 14:01:39;;;;;;;3.08;1.00;;;;;;;23.65;48.24;100364.09;20635985;28;20052;-76
2022/10/02 14:12:08;;;;;;;5.60;0.93;;;;;;;23.79;49.79;100357.59;20612999;28;20042;-74
2022/10/02 14:22:27;;;;;;;5.05;1.10;;;;;;;23.85;50.12;100361.47;20618449;28;20049;-76
2022/10/02 14:32:47;;;;;;;3.45;1.13;;;;;;;23.88;51.03;100350.63;20638255;28;20058;-73
2022/10/02 14:43:35;;;;;;;1.80;1.20;;;;;;;23.89;51.32;100344.38;20638816;28;20465;-74
2022/10/02 14:53:47;;;;;;;4.13;1.40;;;;;;;23.93;51.87;100331.75;20633451;28;20453;-74
2022/10/02 15:04:24;;;;;;;4.15;2.05;;;;;;;23.93;52.09;100305.31;20627027;28;20076;-74
2022/10/02 15:14:25;;;;;;;12.57;1.70;;;;;;;22.82;45.51;100313.16;20612877;28;20046;-73
2022/10/02 15:24:45;;;;;;;4.35;1.50;;;;;;;23.22;47.33;100311.53;20632742;28;20572;-76
2022/10/02 15:35:04;;;;;;;6.70;1.45;;;;;;;23.32;48.49;100299.19;20659286;28;20053;-76
2022/10/02 15:45:15;;;;;;;6.45;1.45;;;;;;;23.36;49.72;100284.75;20658613;28;20376;-81
2022/10/02 15:55:42;;;;;;;5.57;1.30;;;;;;;23.38;50.29;100277.53;20667883;28;20519;-80
2022/10/02 16:05:52;;;;;;;6.80;1.40;;;;;;;23.38;51.02;100268.78;20656440;28;20050;-76
2022/10/02 16:16:44;;;;;;;3.72;1.55;;;;;;;23.38;51.26;100276.69;20630427;28;20034;-78
2022/10/02 16:27:12;;;;;;;5.18;1.50;;;;;;;23.34;51.44;100266.38;20617258;28;20531;-81
2022/10/02 16:37:25;;;;;;;1.80;1.20;;;;;;;23.36;51.90;100287.38;20645707;28;20136;-84
2022/10/02 16:47:32;;;;;;;8.45;1.60;;;;;;;23.35;52.39;100280.41;20622889;28;20531;-83
2022/10/02 16:57:52;;;;;;;6.63;1.55;;;;;;;23.36;52.51;100258.31;20657712;28;20132;-80
2022/10/02 17:08:16;;;;;;;6.55;1.65;;;;;;;23.35;52.57;100251.34;20687050;28;20140;-79
2022/10/02 17:18:26;;;;;;;5.25;1.38;;;;;;;23.33;52.74;100246.22;20672285;28;20124;-78
2022/10/02 17:28:38;;;;;;;2.47;1.60;;;;;;;23.35;52.73;100254.00;20678515;28;20624;-83
2022/10/02 17:38:49;;;;;;;2.45;1.50;;;;;;;23.35;52.68;100256.66;20687480;28;20045;-83
2022/10/02 17:48:54;;;;;;;4.95;1.88;;;;;;;23.35;53.02;100254.00;20677427;28;20042;-85
2022/10/02 17:58:58;;;;;;;2.95;1.40;;;;;;;23.37;52.92;100262.63;20682957;28;20068;-85
2022/10/02 18:09:14;;;;;;;5.60;1.33;;;;;;;23.41;53.25;100277.25;20690923;28;21454;-81
2022/10/02 18:19:30;;;;;;;4.82;1.67;;;;;;;23.40;53.21;100277.38;20663351;28;20088;-82
2022/10/02 18:29:58;;;;;;;5.88;1.30;;;;;;;23.40;53.79;100283.53;20668425;28;20050;-82
2022/10/02 18:40:02;;;;;;;4.95;1.70;;;;;;;23.42;53.75;100281.56;20677058;28;20049;-85
2022/10/02 18:50:32;;;;;;;9.73;1.83;;;;;;;23.41;53.68;100282.56;20667601;28;20042;-80
2022/10/02 19:00:55;;;;;;;4.10;1.60;;;;;;;23.36;53.49;100265.44;20642611;28;20440;-76
2022/10/02 19:10:56;;;;;;;5.30;1.50;;;;;;;23.32;53.60;100247.19;20631421;28;20045;-78
2022/10/02 19:21:14;;;;;;;6.07;2.15;;;;;;;23.33;53.87;100269.19;20681415;28;21278;-78
2022/10/02 19:31:22;;;;;;;3.67;1.60;;;;;;;23.29;53.97;100259.84;20669218;28;20396;-77
2022/10/02 19:41:24;;;;;;;4.43;1.80;;;;;;;23.27;54.19;100249.41;20637925;28;20033;-76
2022/10/02 19:51:24;;;;;;;3.53;1.80;;;;;;;23.26;54.33;100223.97;20657169;28;20086;-78
2022/10/02 20:01:30;;;;;;;3.65;1.52;;;;;;;23.23;54.49;100220.75;20688526;28;20069;-77
2022/10/02 20:12:03;;;;;;;4.80;1.80;;;;;;;23.21;54.66;100223.53;20646912;28;20044;-76
2022/10/02 20:22:33;;;;;;;5.53;1.60;;;;;;;23.20;54.73;100226.31;20645052;28;20053;-78
2022/10/02 20:32:57;;;;;;;3.40;1.50;;;;;;;23.16;54.83;100218.66;20641242;28;20596;-79
2022/10/02 20:43:22;;;;;;;2.13;1.20;;;;;;;23.16;54.87;100215.16;20653030;28;20034;-78
2022/10/02 20:53:57;;;;;;;2.55;1.30;;;;;;;23.09;54.96;100203.47;20650217;28;20049;-77
2022/10/02 21:04:27;;;;;;;3.42;1.42;;;;;;;23.09;54.66;100214.84;20642863;28;20223;-77
2022/10/02 21:14:53;;;;;;;2.38;1.17;;;;;;;23.06;54.70;100217.78;20645333;28;20108;-78
2022/10/02 21:25:17;;;;;;;2.08;1.27;;;;;;;23.03;55.07;100218.91;20644962;28;20066;-77
2022/10/02 21:35:43;;;;;;;3.25;1.10;;;;;;;23.00;54.77;100221.78;20650192;28;20080;-78
2022/10/02 21:46:21;;;;;;;2.00;1.20;;;;;;;23.00;55.10;100219.16;20668197;28;20609;-77
2022/10/02 21:56:47;;;;;;;2.42;1.10;;;;;;;23.00;54.84;100218.31;20668592;28;20074;-77
2022/10/02 22:07:03;;;;;;;2.28;1.30;;;;;;;22.99;55.17;100203.44;20662185;28;20051;-77
2022/10/02 22:17:32;;;;;;;1.58;1.20;;;;;;;23.00;54.68;100218.31;20662021;28;20064;-77
2022/10/02 22:28:05;;;;;;;2.25;1.20;;;;;;;22.97;55.19;100208.03;20635486;28;20077;-77
2022/10/02 22:38:35;;;;;;;1.58;1.00;;;;;;;22.95;55.13;100204.66;20615705;28;20037;-78
2022/10/02 22:48:46;;;;;;;2.50;0.98;;;;;;;22.96;54.45;100187.88;20635961;28;20523;-77
2022/10/02 22:59:28;;;;;;;1.33;0.90;;;;;;;22.94;54.32;100164.25;20622533;28;20124;-77
2022/10/02 23:10:12;;;;;;;1.50;1.00;;;;;;;22.94;54.25;100163.41;20620107;28;20046;-77
2022/10/02 23:20:13;;;;;;;1.25;0.77;;;;;;;22.92;54.40;100168.81;20631037;28;20168;-77
2022/10/02 23:30:20;;;;;;;1.38;0.77;;;;;;;22.91;54.79;100159.25;20625040;28;20072;-77
2022/10/02 23:51:05;;;;;;;1.02;0.90;;;;;;;22.88;54.39;100183.28;20620167;28;20043;-78
